sensor_id;sensor_type;location;lat;lon;timestamp;temperature;humidity
9662;DHT22;24982;52.344;12.990;2023-05-19T00:00:12;13.40;99.90
9662;DHT22;24982;52.344;12.990;2023-05-19T00:03:15;13.40;99.90
9662;DHT22;24982;52.344;12.990;2023-05-19T00:06:22;13.50;99.90
9662;DHT22;24982;52.344;12.990;2023-05-19T00:09:25;13.40;99.90
9662;DHT22;24982;52.344;12.990;2023-05-19T00:12:29;13.40;99.90
9662;DHT22;24982;52.344;12.990;2023-05-19T00:15:31;13.40;99.90
9662;DHT22;24982;52.344;12.990;2023-05-19T00:18:33;13.40;99.90
9662;DHT22;24982;52.344;12.990;2023-05-19T00:21:36;13.20;99.90
9662;DHT22;24982;52.344;12.990;2023-05-19T00:24:38;13.10;99.90
9662;DHT22;24982;52.344;12.990;2023-05-19T00:27:42;13.10;99.90
9662;DHT22;24982;52.344;12.990;2023-05-19T00:30:43;13.10;99.90
9662;DHT22;24982;52.344;12.990;2023-05-19T00:33:45;13.10;99.90
9662;DHT22;24982;52.344;12.990;2023-05-19T00:36:49;13.00;99.90
9662;DHT22;24982;52.344;12.990;2023-05-19T00:39:51;13.10;99.90
9662;DHT22;24982;52.344;12.990;2023-05-19T00:42:54;13.10;99.90
9662;DHT22;24982;52.344;12.990;2023-05-19T00:45:56;13.10;99.90
9662;DHT22;24982;52.344;12.990;2023-05-19T00:48:58;13.10;99.90
9662;DHT22;24982;52.344;12.990;2023-05-19T00:52:01;13.10;99.90
9662;DHT22;24982;52.344;12.990;2023-05-19T00:55:03;13.00;99.90
9662;DHT22;24982;52.344;12.990;2023-05-19T00:58:09;12.90;99.90
9662;DHT22;24982;52.344;12.990;2023-05-19T01:01:11;12.90;99.90
9662;DHT22;24982;52.344;12.990;2023-05-19T01:04:14;12.80;99.90
9662;DHT22;24982;52.344;12.990;2023-05-19T01:07:17;12.70;99.90
9662;DHT22;24982;52.344;12.990;2023-05-19T01:10:19;12.70;99.90
9662;DHT22;24982;52.344;12.990;2023-05-19T01:13:23;12.80;99.90
9662;DHT22;24982;52.344;12.990;2023-05-19T01:16:29;12.90;99.90
9662;DHT22;24982;52.344;12.990;2023-05-19T01:19:49;13.00;99.90
9662;DHT22;24982;52.344;12.990;2023-05-19T01:23:11;12.80;99.90
9662;DHT22;24982;52.344;12.990;2023-05-19T01:26:39;12.70;99.90
9662;DHT22;24982;52.344;12.990;2023-05-19T01:30:07;12.80;99.90
9662;DHT22;24982;52.344;12.990;2023-05-19T01:33:12;12.90;99.90
9662;DHT22;24982;52.344;12.990;2023-05-19T01:36:15;12.60;99.90
9662;DHT22;24982;52.344;12.990;2023-05-19T01:39:19;12.50;99.90
9662;DHT22;24982;52.344;12.990;2023-05-19T01:42:21;12.50;99.90
9662;DHT22;24982;52.344;12.990;2023-05-19T01:45:27;12.50;99.90
9662;DHT22;24982;52.344;12.990;2023-05-19T01:48:30;12.50;99.90
9662;DHT22;24982;52.344;12.990;2023-05-19T01:51:32;12.50;99.90
9662;DHT22;24982;52.344;12.990;2023-05-19T01:54:35;12.40;99.90
9662;DHT22;24982;52.344;12.990;2023-05-19T01:57:43;12.40;99.90
9662;DHT22;24982;52.344;12.990;2023-05-19T02:00:53;12.60;99.90
9662;DHT22;24982;52.344;12.990;2023-05-19T02:04:10;12.50;99.90
9662;DHT22;24982;52.344;12.990;2023-05-19T02:07:19;12.40;99.90
9662;DHT22;24982;52.344;12.990;2023-05-19T02:10:28;12.40;99.90
9662;DHT22;24982;52.344;12.990;2023-05-19T02:13:35;12.40;99.90
9662;DHT22;24982;52.344;12.990;2023-05-19T02:16:40;12.60;99.90
9662;DHT22;24982;52.344;12.990;2023-05-19T02:19:45;12.50;99.90
9662;DHT22;24982;52.344;12.990;2023-05-19T02:22:48;12.60;99.90
9662;DHT22;24982;52.344;12.990;2023-05-19T02:25:50;12.70;99.90
9662;DHT22;24982;52.344;12.990;2023-05-19T02:28:52;12.60;99.90
9662;DHT22;24982;52.344;12.990;2023-05-19T02:31:55;12.60;99.90
9662;DHT22;24982;52.344;12.990;2023-05-19T02:34:57;12.50;99.90
9662;DHT22;24982;52.344;12.990;2023-05-19T02:38:00;12.50;99.90
9662;DHT22;24982;52.344;12.990;2023-05-19T02:41:02;12.50;99.90
9662;DHT22;24982;52.344;12.990;2023-05-19T02:44:04;12.50;99.90
9662;DHT22;24982;52.344;12.990;2023-05-19T02:47:07;12.60;99.90
9662;DHT22;24982;52.344;12.990;2023-05-19T02:50:10;12.50;99.90
9662;DHT22;24982;52.344;12.990;2023-05-19T02:53:12;12.60;99.90
9662;DHT22;24982;52.344;12.990;2023-05-19T02:56:14;12.40;99.90
9662;DHT22;24982;52.344;12.990;2023-05-19T02:59:15;12.60;99.90
9662;DHT22;24982;52.344;12.990;2023-05-19T03:02:19;12.60;99.90
9662;DHT22;24982;52.344;12.990;2023-05-19T03:05:21;12.50;99.90
9662;DHT22;24982;52.344;12.990;2023-05-19T03:08:23;12.40;99.90
9662;DHT22;24982;52.344;12.990;2023-05-19T03:11:24;12.40;99.90
9662;DHT22;24982;52.344;12.990;2023-05-19T03:14:26;12.50;99.90
9662;DHT22;24982;52.344;12.990;2023-05-19T03:17:30;12.60;99.90
9662;DHT22;24982;52.344;12.990;2023-05-19T03:20:33;12.50;99.90
9662;DHT22;24982;52.344;12.990;2023-05-19T03:23:35;12.60;99.90
9662;DHT22;24982;52.344;12.990;2023-05-19T03:26:38;12.60;99.90
9662;DHT22;24982;52.344;12.990;2023-05-19T03:29:40;12.50;99.90
9662;DHT22;24982;52.344;12.990;2023-05-19T03:32:43;12.50;99.90
9662;DHT22;24982;52.344;12.990;2023-05-19T03:35:45;12.40;99.90
9662;DHT22;24982;52.344;12.990;2023-05-19T03:38:48;12.30;99.90
9662;DHT22;24982;52.344;12.990;2023-05-19T03:41:50;12.30;99.90
9662;DHT22;24982;52.344;12.990;2023-05-19T03:44:52;12.20;99.90
9662;DHT22;24982;52.344;12.990;2023-05-19T03:47:55;12.10;99.90
9662;DHT22;24982;52.344;12.990;2023-05-19T03:51:16;12.20;99.90
9662;DHT22;24982;52.344;12.990;2023-05-19T03:54:19;12.20;99.90
9662;DHT22;24982;52.344;12.990;2023-05-19T03:57:22;12.30;99.90
9662;DHT22;24982;52.344;12.990;2023-05-19T04:00:24;12.20;99.90
9662;DHT22;24982;52.344;12.990;2023-05-19T04:03:27;12.20;99.90
9662;DHT22;24982;52.344;12.990;2023-05-19T04:06:29;12.30;99.90
9662;DHT22;24982;52.344;12.990;2023-05-19T04:09:31;12.30;99.90
9662;DHT22;24982;52.344;12.990;2023-05-19T04:12:35;12.40;99.90
9662;DHT22;24982;52.344;12.990;2023-05-19T04:15:37;12.30;99.90
9662;DHT22;24982;52.344;12.990;2023-05-19T04:18:40;12.30;99.90
9662;DHT22;24982;52.344;12.990;2023-05-19T04:21:42;12.30;99.90
9662;DHT22;24982;52.344;12.990;2023-05-19T04:24:44;12.30;99.90
9662;DHT22;24982;52.344;12.990;2023-05-19T04:27:47;12.40;99.90
9662;DHT22;24982;52.344;12.990;2023-05-19T04:30:49;12.60;99.90
9662;DHT22;24982;52.344;12.990;2023-05-19T04:33:52;12.60;99.90
9662;DHT22;24982;52.344;12.990;2023-05-19T04:36:56;12.50;99.90
9662;DHT22;24982;52.344;12.990;2023-05-19T04:39:58;12.60;99.90
9662;DHT22;24982;52.344;12.990;2023-05-19T04:43:01;12.50;99.90
9662;DHT22;24982;52.344;12.990;2023-05-19T04:46:04;12.40;99.90
9662;DHT22;24982;52.344;12.990;2023-05-19T04:49:07;12.50;99.90
9662;DHT22;24982;52.344;12.990;2023-05-19T04:52:12;12.50;99.90
9662;DHT22;24982;52.344;12.990;2023-05-19T04:55:14;12.50;99.90
9662;DHT22;24982;52.344;12.990;2023-05-19T04:58:17;12.50;99.90
9662;DHT22;24982;52.344;12.990;2023-05-19T05:01:20;12.60;99.90
9662;DHT22;24982;52.344;12.990;2023-05-19T05:04:26;12.60;99.90
9662;DHT22;24982;52.344;12.990;2023-05-19T05:07:28;12.80;99.90
9662;DHT22;24982;52.344;12.990;2023-05-19T05:10:31;12.80;99.90
9662;DHT22;24982;52.344;12.990;2023-05-19T05:13:33;12.80;99.90
9662;DHT22;24982;52.344;12.990;2023-05-19T05:16:36;13.00;99.90
9662;DHT22;24982;52.344;12.990;2023-05-19T05:19:41;13.10;99.90
9662;DHT22;24982;52.344;12.990;2023-05-19T05:22:44;13.20;99.90
9662;DHT22;24982;52.344;12.990;2023-05-19T05:25:47;13.30;99.90
9662;DHT22;24982;52.344;12.990;2023-05-19T05:28:50;13.40;99.90
9662;DHT22;24982;52.344;12.990;2023-05-19T05:31:52;13.50;99.90
9662;DHT22;24982;52.344;12.990;2023-05-19T05:34:55;13.50;99.90
9662;DHT22;24982;52.344;12.990;2023-05-19T05:37:58;13.60;99.90
9662;DHT22;24982;52.344;12.990;2023-05-19T05:41:01;13.50;99.90
9662;DHT22;24982;52.344;12.990;2023-05-19T05:44:03;13.60;99.90
9662;DHT22;24982;52.344;12.990;2023-05-19T05:47:06;13.70;99.90
9662;DHT22;24982;52.344;12.990;2023-05-19T05:50:12;13.70;99.90
9662;DHT22;24982;52.344;12.990;2023-05-19T05:53:17;13.70;99.90
9662;DHT22;24982;52.344;12.990;2023-05-19T05:56:20;13.80;99.90
9662;DHT22;24982;52.344;12.990;2023-05-19T05:59:26;13.80;99.90
9662;DHT22;24982;52.344;12.990;2023-05-19T06:02:28;13.80;99.90
9662;DHT22;24982;52.344;12.990;2023-05-19T06:05:33;13.90;99.90
9662;DHT22;24982;52.344;12.990;2023-05-19T06:08:35;13.80;99.90
9662;DHT22;24982;52.344;12.990;2023-05-19T06:11:38;13.80;99.90
9662;DHT22;24982;52.344;12.990;2023-05-19T06:14:40;13.80;99.90
9662;DHT22;24982;52.344;12.990;2023-05-19T06:18:12;13.90;99.90
9662;DHT22;24982;52.344;12.990;2023-05-19T06:21:15;14.00;99.90
9662;DHT22;24982;52.344;12.990;2023-05-19T06:24:18;14.00;99.90
9662;DHT22;24982;52.344;12.990;2023-05-19T06:27:21;14.00;99.90
9662;DHT22;24982;52.344;12.990;2023-05-19T06:30:24;13.90;99.90
9662;DHT22;24982;52.344;12.990;2023-05-19T06:33:37;13.90;99.90
9662;DHT22;24982;52.344;12.990;2023-05-19T06:36:40;14.00;99.90
9662;DHT22;24982;52.344;12.990;2023-05-19T06:39:43;14.10;99.90
9662;DHT22;24982;52.344;12.990;2023-05-19T06:42:45;14.10;99.90
9662;DHT22;24982;52.344;12.990;2023-05-19T06:45:50;14.10;99.90
9662;DHT22;24982;52.344;12.990;2023-05-19T06:48:52;14.20;99.90
9662;DHT22;24982;52.344;12.990;2023-05-19T06:51:59;14.20;99.90
9662;DHT22;24982;52.344;12.990;2023-05-19T06:55:01;14.20;99.90
9662;DHT22;24982;52.344;12.990;2023-05-19T06:58:05;14.20;99.90
9662;DHT22;24982;52.344;12.990;2023-05-19T07:01:07;14.30;99.90
9662;DHT22;24982;52.344;12.990;2023-05-19T07:04:15;14.40;99.90
9662;DHT22;24982;52.344;12.990;2023-05-19T07:07:19;14.60;99.90
9662;DHT22;24982;52.344;12.990;2023-05-19T07:10:22;14.50;99.90
9662;DHT22;24982;52.344;12.990;2023-05-19T07:13:24;14.70;99.90
9662;DHT22;24982;52.344;12.990;2023-05-19T07:16:26;14.60;99.90
9662;DHT22;24982;52.344;12.990;2023-05-19T07:19:29;14.70;99.90
9662;DHT22;24982;52.344;12.990;2023-05-19T07:22:33;15.00;99.90
9662;DHT22;24982;52.344;12.990;2023-05-19T07:25:36;15.20;99.90
9662;DHT22;24982;52.344;12.990;2023-05-19T07:28:38;14.70;99.90
9662;DHT22;24982;52.344;12.990;2023-05-19T07:31:42;15.30;99.90
9662;DHT22;24982;52.344;12.990;2023-05-19T07:34:43;15.40;99.90
9662;DHT22;24982;52.344;12.990;2023-05-19T07:37:47;15.50;99.90
9662;DHT22;24982;52.344;12.990;2023-05-19T07:40:49;15.50;99.90
9662;DHT22;24982;52.344;12.990;2023-05-19T07:43:51;15.50;99.90
9662;DHT22;24982;52.344;12.990;2023-05-19T07:46:52;15.70;99.90
9662;DHT22;24982;52.344;12.990;2023-05-19T07:49:54;15.80;99.90
9662;DHT22;24982;52.344;12.990;2023-05-19T07:52:58;16.00;99.90
9662;DHT22;24982;52.344;12.990;2023-05-19T07:55:59;16.10;99.90
9662;DHT22;24982;52.344;12.990;2023-05-19T07:59:02;16.20;99.90
9662;DHT22;24982;52.344;12.990;2023-05-19T08:02:04;16.20;99.90
9662;DHT22;24982;52.344;12.990;2023-05-19T08:05:07;16.40;99.90
9662;DHT22;24982;52.344;12.990;2023-05-19T08:08:10;16.50;99.90
9662;DHT22;24982;52.344;12.990;2023-05-19T08:11:16;16.60;99.90
9662;DHT22;24982;52.344;12.990;2023-05-19T08:14:18;16.70;99.90
9662;DHT22;24982;52.344;12.990;2023-05-19T08:17:22;16.80;99.90
9662;DHT22;24982;52.344;12.990;2023-05-19T08:20:24;16.80;99.90
9662;DHT22;24982;52.344;12.990;2023-05-19T08:23:27;16.80;99.90
9662;DHT22;24982;52.344;12.990;2023-05-19T08:26:29;16.90;99.90
9662;DHT22;24982;52.344;12.990;2023-05-19T08:29:32;17.00;99.90
9662;DHT22;24982;52.344;12.990;2023-05-19T08:32:34;17.10;99.90
9662;DHT22;24982;52.344;12.990;2023-05-19T08:35:36;17.20;99.90
9662;DHT22;24982;52.344;12.990;2023-05-19T08:38:39;17.20;99.90
9662;DHT22;24982;52.344;12.990;2023-05-19T08:41:41;17.20;99.90
9662;DHT22;24982;52.344;12.990;2023-05-19T08:44:43;17.40;99.90
9662;DHT22;24982;52.344;12.990;2023-05-19T08:47:45;17.40;99.90
9662;DHT22;24982;52.344;12.990;2023-05-19T08:51:01;17.50;99.90
9662;DHT22;24982;52.344;12.990;2023-05-19T08:54:13;17.70;99.90
9662;DHT22;24982;52.344;12.990;2023-05-19T09:00:18;18.20;99.90
9662;DHT22;24982;52.344;12.990;2023-05-19T09:03:20;18.30;99.90
9662;DHT22;24982;52.344;12.990;2023-05-19T09:06:22;18.40;99.90
9662;DHT22;24982;52.344;12.990;2023-05-19T09:09:26;18.80;99.90
9662;DHT22;24982;52.344;12.990;2023-05-19T09:12:28;18.70;99.90
9662;DHT22;24982;52.344;12.990;2023-05-19T09:15:31;18.90;98.80
9662;DHT22;24982;52.344;12.990;2023-05-19T09:18:37;18.80;99.40
9662;DHT22;24982;52.344;12.990;2023-05-19T09:21:40;19.00;98.20
9662;DHT22;24982;52.344;12.990;2023-05-19T09:27:46;19.30;99.90
9662;DHT22;24982;52.344;12.990;2023-05-19T09:30:48;19.30;99.90
9662;DHT22;24982;52.344;12.990;2023-05-19T09:33:52;19.50;99.90
9662;DHT22;24982;52.344;12.990;2023-05-19T09:36:54;19.50;99.90
9662;DHT22;24982;52.344;12.990;2023-05-19T09:39:58;19.50;99.90
9662;DHT22;24982;52.344;12.990;2023-05-19T09:43:04;19.70;99.90
9662;DHT22;24982;52.344;12.990;2023-05-19T09:46:09;19.90;99.50
9662;DHT22;24982;52.344;12.990;2023-05-19T09:49:11;19.90;99.90
9662;DHT22;24982;52.344;12.990;2023-05-19T09:52:14;20.10;99.70
9662;DHT22;24982;52.344;12.990;2023-05-19T09:55:18;20.20;99.90
9662;DHT22;24982;52.344;12.990;2023-05-19T09:58:22;20.00;99.90
9662;DHT22;24982;52.344;12.990;2023-05-19T10:01:24;19.80;98.80
9662;DHT22;24982;52.344;12.990;2023-05-19T10:04:28;19.60;99.90
9662;DHT22;24982;52.344;12.990;2023-05-19T10:07:30;19.50;99.90
9662;DHT22;24982;52.344;12.990;2023-05-19T10:10:34;19.40;98.90
9662;DHT22;24982;52.344;12.990;2023-05-19T10:13:36;19.40;99.40
9662;DHT22;24982;52.344;12.990;2023-05-19T10:16:39;19.20;99.20
9662;DHT22;24982;52.344;12.990;2023-05-19T10:19:42;19.20;98.00
9662;DHT22;24982;52.344;12.990;2023-05-19T10:22:45;19.40;97.80
9662;DHT22;24982;52.344;12.990;2023-05-19T10:25:50;19.50;97.30
9662;DHT22;24982;52.344;12.990;2023-05-19T10:28:53;19.60;97.20
9662;DHT22;24982;52.344;12.990;2023-05-19T10:31:57;20.00;97.40
9662;DHT22;24982;52.344;12.990;2023-05-19T10:35:32;20.40;97.30
9662;DHT22;24982;52.344;12.990;2023-05-19T10:41:52;20.80;91.80
9662;DHT22;24982;52.344;12.990;2023-05-19T10:45:07;20.80;89.70
9662;DHT22;24982;52.344;12.990;2023-05-19T10:51:15;21.40;91.30
9662;DHT22;24982;52.344;12.990;2023-05-19T10:54:17;21.50;93.10
9662;DHT22;24982;52.344;12.990;2023-05-19T10:57:52;21.70;94.70
9662;DHT22;24982;52.344;12.990;2023-05-19T11:00:59;21.80;94.10
9662;DHT22;24982;52.344;12.990;2023-05-19T11:04:04;21.60;93.20
9662;DHT22;24982;52.344;12.990;2023-05-19T11:07:08;21.80;93.00
9662;DHT22;24982;52.344;12.990;2023-05-19T11:10:11;22.00;93.60
9662;DHT22;24982;52.344;12.990;2023-05-19T11:13:20;22.00;95.60
9662;DHT22;24982;52.344;12.990;2023-05-19T11:16:30;22.30;96.80
9662;DHT22;24982;52.344;12.990;2023-05-19T11:19:34;22.30;96.10
9662;DHT22;24982;52.344;12.990;2023-05-19T11:22:36;21.80;95.30
9662;DHT22;24982;52.344;12.990;2023-05-19T11:25:43;22.20;97.30
9662;DHT22;24982;52.344;12.990;2023-05-19T11:28:46;22.40;95.30
9662;DHT22;24982;52.344;12.990;2023-05-19T11:31:48;22.40;95.40
9662;DHT22;24982;52.344;12.990;2023-05-19T11:34:51;22.40;95.00
9662;DHT22;24982;52.344;12.990;2023-05-19T11:37:54;22.50;93.50
9662;DHT22;24982;52.344;12.990;2023-05-19T11:40:57;22.30;95.60
9662;DHT22;24982;52.344;12.990;2023-05-19T11:44:00;22.00;95.50
9662;DHT22;24982;52.344;12.990;2023-05-19T11:47:02;21.90;93.80
9662;DHT22;24982;52.344;12.990;2023-05-19T11:50:05;21.90;94.90
9662;DHT22;24982;52.344;12.990;2023-05-19T11:53:07;22.10;94.00
9662;DHT22;24982;52.344;12.990;2023-05-19T11:56:11;22.20;94.20
9662;DHT22;24982;52.344;12.990;2023-05-19T11:59:16;22.30;93.20
9662;DHT22;24982;52.344;12.990;2023-05-19T12:02:19;22.40;92.30
9662;DHT22;24982;52.344;12.990;2023-05-19T12:05:23;22.30;92.90
9662;DHT22;24982;52.344;12.990;2023-05-19T12:08:25;22.10;93.70
9662;DHT22;24982;52.344;12.990;2023-05-19T12:11:28;21.90;94.40
9662;DHT22;24982;52.344;12.990;2023-05-19T12:14:32;21.70;94.10
9662;DHT22;24982;52.344;12.990;2023-05-19T12:17:36;21.90;93.10
9662;DHT22;24982;52.344;12.990;2023-05-19T12:20:38;22.10;94.20
9662;DHT22;24982;52.344;12.990;2023-05-19T12:23:40;22.20;94.80
9662;DHT22;24982;52.344;12.990;2023-05-19T12:26:42;22.30;94.40
9662;DHT22;24982;52.344;12.990;2023-05-19T12:29:50;22.40;94.20
9662;DHT22;24982;52.344;12.990;2023-05-19T12:32:53;22.30;94.30
9662;DHT22;24982;52.344;12.990;2023-05-19T12:35:56;22.70;93.10
9662;DHT22;24982;52.344;12.990;2023-05-19T12:38:58;22.90;93.00
9662;DHT22;24982;52.344;12.990;2023-05-19T12:42:01;22.80;91.60
9662;DHT22;24982;52.344;12.990;2023-05-19T12:45:05;22.60;91.70
9662;DHT22;24982;52.344;12.990;2023-05-19T12:48:10;22.60;91.20
9662;DHT22;24982;52.344;12.990;2023-05-19T12:51:16;22.80;91.50
9662;DHT22;24982;52.344;12.990;2023-05-19T12:54:19;22.80;92.80
9662;DHT22;24982;52.344;12.990;2023-05-19T12:57:21;22.80;93.00
9662;DHT22;24982;52.344;12.990;2023-05-19T13:00:26;22.70;92.50
9662;DHT22;24982;52.344;12.990;2023-05-19T13:03:30;22.40;92.00
9662;DHT22;24982;52.344;12.990;2023-05-19T13:06:32;22.10;92.50
9662;DHT22;24982;52.344;12.990;2023-05-19T13:09:34;21.90;93.30
9662;DHT22;24982;52.344;12.990;2023-05-19T13:12:36;21.80;94.20
9662;DHT22;24982;52.344;12.990;2023-05-19T13:15:41;21.90;93.70
9662;DHT22;24982;52.344;12.990;2023-05-19T13:18:43;21.90;94.40
9662;DHT22;24982;52.344;12.990;2023-05-19T13:21:45;21.80;94.20
9662;DHT22;24982;52.344;12.990;2023-05-19T13:24:47;21.70;94.10
9662;DHT22;24982;52.344;12.990;2023-05-19T13:27:50;21.70;93.90
9662;DHT22;24982;52.344;12.990;2023-05-19T13:30:53;21.70;94.10
9662;DHT22;24982;52.344;12.990;2023-05-19T13:33:55;21.50;93.40
9662;DHT22;24982;52.344;12.990;2023-05-19T13:36:57;21.60;99.90
9662;DHT22;24982;52.344;12.990;2023-05-19T13:39:59;21.50;93.20
9662;DHT22;24982;52.344;12.990;2023-05-19T13:43:01;21.40;93.50
9662;DHT22;24982;52.344;12.990;2023-05-19T13:46:06;21.20;94.40
9662;DHT22;24982;52.344;12.990;2023-05-19T13:49:07;21.20;93.80
9662;DHT22;24982;52.344;12.990;2023-05-19T13:52:09;21.00;93.10
9662;DHT22;24982;52.344;12.990;2023-05-19T13:55:12;20.90;94.00
9662;DHT22;24982;52.344;12.990;2023-05-19T13:58:14;20.80;94.00
9662;DHT22;24982;52.344;12.990;2023-05-19T14:01:18;20.80;95.20
9662;DHT22;24982;52.344;12.990;2023-05-19T14:04:20;20.80;94.70
9662;DHT22;24982;52.344;12.990;2023-05-19T14:07:23;20.80;94.80
9662;DHT22;24982;52.344;12.990;2023-05-19T14:10:25;21.10;94.10
9662;DHT22;24982;52.344;12.990;2023-05-19T14:13:27;21.50;94.70
9662;DHT22;24982;52.344;12.990;2023-05-19T14:16:30;21.60;95.50
9662;DHT22;24982;52.344;12.990;2023-05-19T14:19:32;21.40;93.70
9662;DHT22;24982;52.344;12.990;2023-05-19T14:22:34;21.30;92.20
9662;DHT22;24982;52.344;12.990;2023-05-19T14:25:36;21.20;93.60
9662;DHT22;24982;52.344;12.990;2023-05-19T14:28:38;21.00;92.70
9662;DHT22;24982;52.344;12.990;2023-05-19T14:31:41;20.90;92.80
9662;DHT22;24982;52.344;12.990;2023-05-19T14:34:43;20.60;93.50
9662;DHT22;24982;52.344;12.990;2023-05-19T14:37:45;20.60;93.20
9662;DHT22;24982;52.344;12.990;2023-05-19T14:40:46;20.40;92.90
9662;DHT22;24982;52.344;12.990;2023-05-19T14:43:48;20.40;93.60
9662;DHT22;24982;52.344;12.990;2023-05-19T14:46:52;20.40;93.80
9662;DHT22;24982;52.344;12.990;2023-05-19T14:49:54;20.90;94.20
9662;DHT22;24982;52.344;12.990;2023-05-19T14:52:55;21.10;92.90
9662;DHT22;24982;52.344;12.990;2023-05-19T14:55:57;21.10;92.20
9662;DHT22;24982;52.344;12.990;2023-05-19T14:58:59;20.90;93.40
9662;DHT22;24982;52.344;12.990;2023-05-19T15:02:02;20.80;93.60
9662;DHT22;24982;52.344;12.990;2023-05-19T15:05:05;20.60;91.80
9662;DHT22;24982;52.344;12.990;2023-05-19T15:08:07;20.70;93.00
9662;DHT22;24982;52.344;12.990;2023-05-19T15:11:09;20.80;92.50
9662;DHT22;24982;52.344;12.990;2023-05-19T15:14:11;20.80;91.80
9662;DHT22;24982;52.344;12.990;2023-05-19T15:17:14;20.80;92.20
9662;DHT22;24982;52.344;12.990;2023-05-19T15:20:16;20.90;93.10
9662;DHT22;24982;52.344;12.990;2023-05-19T15:23:18;20.90;92.50
9662;DHT22;24982;52.344;12.990;2023-05-19T15:26:20;20.80;91.40
9662;DHT22;24982;52.344;12.990;2023-05-19T15:29:22;20.60;92.60
9662;DHT22;24982;52.344;12.990;2023-05-19T15:32:25;20.40;93.00
9662;DHT22;24982;52.344;12.990;2023-05-19T15:35:27;20.40;92.80
9662;DHT22;24982;52.344;12.990;2023-05-19T15:38:29;20.20;93.60
9662;DHT22;24982;52.344;12.990;2023-05-19T15:41:33;20.20;93.90
9662;DHT22;24982;52.344;12.990;2023-05-19T15:44:35;20.20;93.50
9662;DHT22;24982;52.344;12.990;2023-05-19T15:47:38;20.20;93.80
9662;DHT22;24982;52.344;12.990;2023-05-19T15:50:40;20.30;94.00
9662;DHT22;24982;52.344;12.990;2023-05-19T15:53:42;20.20;93.80
9662;DHT22;24982;52.344;12.990;2023-05-19T15:56:44;20.10;94.30
9662;DHT22;24982;52.344;12.990;2023-05-19T15:59:46;20.00;94.40
9662;DHT22;24982;52.344;12.990;2023-05-19T16:02:49;20.00;94.40
9662;DHT22;24982;52.344;12.990;2023-05-19T16:05:52;20.00;96.70
9662;DHT22;24982;52.344;12.990;2023-05-19T16:08:53;19.90;95.00
9662;DHT22;24982;52.344;12.990;2023-05-19T16:11:55;19.80;95.40
9662;DHT22;24982;52.344;12.990;2023-05-19T16:14:57;19.80;95.20
9662;DHT22;24982;52.344;12.990;2023-05-19T16:18:01;19.70;95.30
9662;DHT22;24982;52.344;12.990;2023-05-19T16:21:03;19.60;95.10
9662;DHT22;24982;52.344;12.990;2023-05-19T16:24:05;19.60;95.80
9662;DHT22;24982;52.344;12.990;2023-05-19T16:27:07;19.40;95.30
9662;DHT22;24982;52.344;12.990;2023-05-19T16:30:09;19.30;96.10
9662;DHT22;24982;52.344;12.990;2023-05-19T16:33:13;19.30;97.20
9662;DHT22;24982;52.344;12.990;2023-05-19T16:36:15;19.30;96.70
9662;DHT22;24982;52.344;12.990;2023-05-19T16:39:17;19.30;97.00
9662;DHT22;24982;52.344;12.990;2023-05-19T16:42:19;19.30;96.90
9662;DHT22;24982;52.344;12.990;2023-05-19T16:45:21;19.30;96.60
9662;DHT22;24982;52.344;12.990;2023-05-19T16:48:24;19.10;96.80
9662;DHT22;24982;52.344;12.990;2023-05-19T16:51:26;19.10;97.60
9662;DHT22;24982;52.344;12.990;2023-05-19T16:54:28;19.10;96.60
9662;DHT22;24982;52.344;12.990;2023-05-19T16:57:29;19.00;96.60
9662;DHT22;24982;52.344;12.990;2023-05-19T17:00:31;18.90;96.50
9662;DHT22;24982;52.344;12.990;2023-05-19T17:03:35;18.80;97.90
9662;DHT22;24982;52.344;12.990;2023-05-19T17:06:36;18.80;99.00
9662;DHT22;24982;52.344;12.990;2023-05-19T17:09:38;18.70;97.90
9662;DHT22;24982;52.344;12.990;2023-05-19T17:12:40;18.70;99.50
9662;DHT22;24982;52.344;12.990;2023-05-19T17:15:42;18.50;99.80
9662;DHT22;24982;52.344;12.990;2023-05-19T17:18:45;18.70;99.50
9662;DHT22;24982;52.344;12.990;2023-05-19T17:21:48;18.60;99.90
9662;DHT22;24982;52.344;12.990;2023-05-19T17:24:50;18.50;99.90
9662;DHT22;24982;52.344;12.990;2023-05-19T17:27:52;18.50;99.90
9662;DHT22;24982;52.344;12.990;2023-05-19T17:30:55;18.40;99.90
9662;DHT22;24982;52.344;12.990;2023-05-19T17:33:58;18.30;99.90
9662;DHT22;24982;52.344;12.990;2023-05-19T17:37:00;18.40;99.90
9662;DHT22;24982;52.344;12.990;2023-05-19T17:40:03;18.40;99.90
9662;DHT22;24982;52.344;12.990;2023-05-19T17:43:05;18.40;99.90
9662;DHT22;24982;52.344;12.990;2023-05-19T17:46:08;18.30;99.90
9662;DHT22;24982;52.344;12.990;2023-05-19T17:49:11;18.30;99.90
9662;DHT22;24982;52.344;12.990;2023-05-19T17:52:13;18.30;99.90
9662;DHT22;24982;52.344;12.990;2023-05-19T17:55:17;18.30;99.90
9662;DHT22;24982;52.344;12.990;2023-05-19T17:58:19;18.30;99.80
9662;DHT22;24982;52.344;12.990;2023-05-19T18:01:22;18.30;99.90
9662;DHT22;24982;52.344;12.990;2023-05-19T18:04:27;18.30;99.90
9662;DHT22;24982;52.344;12.990;2023-05-19T18:07:30;18.20;99.90
9662;DHT22;24982;52.344;12.990;2023-05-19T18:10:35;18.20;99.90
9662;DHT22;24982;52.344;12.990;2023-05-19T18:13:38;18.20;99.90
9662;DHT22;24982;52.344;12.990;2023-05-19T18:16:39;18.10;99.90
9662;DHT22;24982;52.344;12.990;2023-05-19T18:19:43;18.10;99.90
9662;DHT22;24982;52.344;12.990;2023-05-19T18:22:45;18.10;99.90
9662;DHT22;24982;52.344;12.990;2023-05-19T18:25:50;18.10;99.90
9662;DHT22;24982;52.344;12.990;2023-05-19T18:28:53;18.00;99.90
9662;DHT22;24982;52.344;12.990;2023-05-19T18:31:55;18.00;99.90
9662;DHT22;24982;52.344;12.990;2023-05-19T18:34:58;18.10;99.90
9662;DHT22;24982;52.344;12.990;2023-05-19T18:38:00;18.00;99.90
9662;DHT22;24982;52.344;12.990;2023-05-19T18:41:02;18.00;99.90
9662;DHT22;24982;52.344;12.990;2023-05-19T18:44:04;17.90;99.90
9662;DHT22;24982;52.344;12.990;2023-05-19T18:47:07;18.00;99.90
9662;DHT22;24982;52.344;12.990;2023-05-19T18:50:11;18.10;99.90
9662;DHT22;24982;52.344;12.990;2023-05-19T18:53:13;17.60;99.90
9662;DHT22;24982;52.344;12.990;2023-05-19T18:56:21;17.90;99.90
9662;DHT22;24982;52.344;12.990;2023-05-19T18:59:24;17.80;99.90
9662;DHT22;24982;52.344;12.990;2023-05-19T19:02:26;17.80;99.90
9662;DHT22;24982;52.344;12.990;2023-05-19T19:05:29;17.80;99.90
9662;DHT22;24982;52.344;12.990;2023-05-19T19:08:31;17.70;99.90
9662;DHT22;24982;52.344;12.990;2023-05-19T19:11:33;17.60;99.90
9662;DHT22;24982;52.344;12.990;2023-05-19T19:14:35;17.60;99.90
9662;DHT22;24982;52.344;12.990;2023-05-19T19:17:37;17.50;99.90
9662;DHT22;24982;52.344;12.990;2023-05-19T19:20:41;17.50;99.90
9662;DHT22;24982;52.344;12.990;2023-05-19T19:23:43;17.50;99.90
9662;DHT22;24982;52.344;12.990;2023-05-19T19:26:44;17.40;99.90
9662;DHT22;24982;52.344;12.990;2023-05-19T19:29:46;17.30;99.90